Time;durP1;ratioP1;P1;durP2;ratioP2;P2;SDS_P1;SDS_P2;PMS_P1;PMS_P2;Temp;Humidity;BMP_temperature;BMP_pressure;BME280_temperature;BME280_humidity;BME280_pressure;Samples;Min_cycle;Max_cycle;Signal;HPM_P1;HPM_P2
2022/01/22 00:00:39;;;;;;;25.65;4.72;;;;;;;5.39;79.92;103513.16;5066580;28;20031;-59
2022/01/22 00:03:04;;;;;;;16.52;4.40;;;;;;;5.44;79.91;103514.16;5071409;28;20557;-57
2022/01/22 00:05:30;;;;;;;20.25;4.47;;;;;;;5.43;79.89;103517.63;5057619;28;20024;-58
2022/01/22 00:07:55;;;;;;;12.20;3.90;;;;;;;5.50;79.72;103513.44;5060910;28;20055;-58
2022/01/22 00:10:23;;;;;;;15.45;5.18;;;;;;;5.56;79.54;103514.53;5063638;28;20043;-58
2022/01/22 00:15:20;;;;;;;18.67;5.10;;;;;;;5.57;79.56;103495.38;5058687;28;20351;-57
2022/01/22 00:17:47;;;;;;;15.10;4.72;;;;;;;5.61;79.69;103498.09;5061775;28;20020;-59
2022/01/22 00:20:14;;;;;;;15.63;4.10;;;;;;;5.66;79.59;103496.50;5057013;28;20009;-58
2022/01/22 00:22:40;;;;;;;20.20;5.50;;;;;;;5.66;79.75;103491.28;5067278;28;20474;-57
2022/01/22 00:25:09;;;;;;;17.92;5.15;;;;;;;5.63;79.95;103489.44;5065702;28;20040;-57
2022/01/22 00:27:35;;;;;;;;;;;;;;;5.69;79.81;103489.63;5067234;28;20040;-58
2022/01/22 00:30:00;;;;;;;19.02;5.03;;;;;;;5.67;79.82;103493.06;5082087;28;19920;-58
2022/01/22 00:32:25;;;;;;;19.80;6.20;;;;;;;5.61;80.28;103488.53;5073760;28;20025;-58
2022/01/22 00:34:51;;;;;;;14.15;4.70;;;;;;;5.62;80.50;103490.28;5065789;28;20387;-57
2022/01/22 00:37:16;;;;;;;21.85;5.13;;;;;;;5.61;80.84;103485.00;5066189;28;20028;-60
2022/01/22 00:39:41;;;;;;;23.67;4.50;;;;;;;5.57;81.00;103484.91;5067137;28;20024;-57
2022/01/22 00:42:12;;;;;;;19.05;3.85;;;;;;;5.58;80.94;103485.81;5065494;28;20059;-59
2022/01/22 00:44:37;;;;;;;23.83;5.00;;;;;;;5.59;81.21;103476.22;5065932;28;20060;-57
2022/01/22 00:47:03;;;;;;;19.27;4.43;;;;;;;5.59;81.41;103482.34;5065590;28;20016;-58
2022/01/22 00:49:29;;;;;;;21.00;5.18;;;;;;;5.59;81.28;103477.13;5065658;28;20078;-57
2022/01/22 00:51:55;;;;;;;14.18;3.25;;;;;;;5.61;81.42;103474.56;5065433;28;20016;-57
2022/01/22 00:54:21;;;;;;;10.60;3.42;;;;;;;5.61;81.22;103478.06;5065070;28;20116;-58
2022/01/22 00:56:46;;;;;;;18.20;4.88;;;;;;;5.63;81.13;103478.97;5066002;28;20681;-56
2022/01/22 00:59:11;;;;;;;22.10;4.35;;;;;;;5.62;81.43;103478.94;5066736;28;20039;-59
2022/01/22 01:01:36;;;;;;;15.50;3.58;;;;;;;5.63;81.53;103484.22;5065938;28;20041;-60
2022/01/22 01:04:03;;;;;;;17.27;3.05;;;;;;;5.63;81.50;103480.72;5066823;28;20028;-58
2022/01/22 01:06:29;;;;;;;22.67;3.53;;;;;;;5.61;81.67;103479.78;5066317;28;20028;-57
2022/01/22 01:08:54;;;;;;;20.33;3.33;;;;;;;5.63;81.75;103478.13;5065657;28;20025;-58
2022/01/22 01:11:21;;;;;;;17.40;3.25;;;;;;;5.64;81.67;103475.53;5066685;28;20492;-57
2022/01/22 01:13:50;;;;;;;11.57;2.50;;;;;;;5.63;81.40;103468.50;5046883;28;20486;-58
2022/01/22 01:16:20;;;;;;;16.17;2.75;;;;;;;5.65;81.37;103472.06;5066239;28;20395;-58
2022/01/22 01:32:56;;;;;;;15.07;2.30;;;;;;;5.69;80.55;103465.22;5068006;28;20040;-58
2022/01/22 01:35:11;;;;;;;13.90;2.42;;;;;;;5.71;80.70;103476.59;5068429;28;20055;-60
2022/01/22 01:37:36;;;;;;;11.32;2.35;;;;;;;5.74;80.25;103476.69;5061689;28;20434;-60
2022/01/22 01:40:05;;;;;;;20.20;3.22;;;;;;;5.77;79.85;103478.50;5053505;28;20060;-58
2022/01/22 01:45:09;;;;;;;19.35;4.65;;;;;;;5.89;79.53;103471.00;5063106;28;20041;-55
2022/01/22 01:47:35;;;;;;;16.40;2.70;;;;;;;5.87;79.47;103477.06;5063391;28;20036;-59
2022/01/22 01:50:01;;;;;;;16.10;2.47;;;;;;;5.88;79.38;103481.44;5069715;28;20020;-59
2022/01/22 01:52:38;;;;;;;10.27;3.38;;;;;;;5.91;79.42;103484.13;5071539;28;20034;-57
2022/01/22 01:55:11;;;;;;;16.05;3.33;;;;;;;5.90;79.59;103483.25;5065688;28;20102;-59
2022/01/22 01:57:39;;;;;;;16.85;2.45;;;;;;;5.93;79.75;103480.72;5053014;28;20037;-55
2022/01/22 02:00:13;;;;;;;22.30;2.90;;;;;;;5.97;79.53;103472.94;5059183;28;20048;-56
2022/01/22 02:02:40;;;;;;;11.55;2.60;;;;;;;5.94;79.94;103474.63;5058105;22;20041;-59
2022/01/22 02:05:08;;;;;;;16.20;2.45;;;;;;;5.96;79.76;103477.28;5007170;28;20088;-58
2022/01/22 02:07:37;;;;;;;21.50;3.95;;;;;;;5.97;79.75;103471.22;5004993;28;20095;-59
2022/01/22 02:10:04;;;;;;;14.80;2.42;;;;;;;5.97;79.77;103475.56;5010001;28;20026;-58
2022/01/22 02:25:55;;;;;;;6.50;2.00;;;;;;;5.97;80.24;103478.19;5008852;28;20223;-58
2022/01/22 02:28:20;;;;;;;13.88;2.92;;;;;;;5.93;80.37;103477.22;5003190;28;20030;-59
2022/01/22 02:30:48;;;;;;;13.77;2.92;;;;;;;5.98;80.37;103475.59;5009389;28;20018;-60
2022/01/22 02:33:40;;;;;;;12.95;2.63;;;;;;;5.99;80.40;103471.28;5007160;28;20053;-60
2022/01/22 02:41:27;;;;;;;8.45;2.42;;;;;;;5.91;81.06;103478.91;5000552;28;20100;-60
2022/01/22 02:43:54;;;;;;;12.50;2.28;;;;;;;5.98;80.96;103475.59;5010192;28;20034;-60
2022/01/22 02:46:25;;;;;;;11.95;1.90;;;;;;;5.96;81.04;103477.28;5008472;28;20415;-60
2022/01/22 02:48:51;;;;;;;12.98;3.03;;;;;;;5.98;81.08;103480.84;5028797;28;20113;-59
2022/01/22 02:51:17;;;;;;;18.17;3.47;;;;;;;5.96;81.23;103482.53;4992018;28;20024;-58
2022/01/22 02:53:42;;;;;;;13.30;3.03;;;;;;;5.96;81.40;103479.03;5005509;28;20030;-56
2022/01/22 02:56:07;;;;;;;11.50;1.98;;;;;;;5.90;81.56;103479.75;5008788;28;20128;-58
2022/01/22 02:58:33;;;;;;;18.75;2.97;;;;;;;5.93;82.05;103474.63;5008119;28;20032;-58
2022/01/22 03:00:59;;;;;;;15.55;3.47;;;;;;;5.93;82.13;103479.84;4995248;28;20109;-57
2022/01/22 03:03:24;;;;;;;12.30;2.75;;;;;;;5.90;82.42;103488.47;4999680;28;20074;-56
2022/01/22 03:05:49;;;;;;;10.88;2.45;;;;;;;5.90;82.50;103471.91;5022896;28;20045;-59
2022/01/22 03:08:15;;;;;;;18.98;3.67;;;;;;;5.86;82.86;103484.00;5028094;28;20029;-59
2022/01/22 03:10:44;;;;;;;11.93;3.08;;;;;;;5.72;83.75;103480.97;5019557;28;20033;-59
2022/01/22 03:18:12;;;;;;;16.10;2.90;;;;;;;5.79;83.72;103479.44;5008615;28;20167;-58
2022/01/22 03:28:23;;;;;;;20.17;3.45;;;;;;;5.81;83.93;103490.84;5008629;28;20255;-58
2022/01/22 03:30:48;;;;;;;17.08;3.15;;;;;;;5.79;83.92;103485.56;5007637;28;20698;-58
2022/01/22 03:33:16;;;;;;;10.77;3.00;;;;;;;5.76;84.06;103482.88;5011538;28;20029;-58
2022/01/22 03:35:45;;;;;;;16.33;3.22;;;;;;;5.77;84.06;103475.88;4998208;28;20042;-58
2022/01/22 03:38:11;;;;;;;;;;;;;;;5.75;84.29;103488.06;5004775;28;20044;-58
2022/01/22 03:40:36;;;;;;;8.68;2.30;;;;;;;5.75;84.02;103483.69;5005284;28;20125;-58
2022/01/22 03:43:01;;;;;;;14.05;2.60;;;;;;;5.78;83.99;103489.00;4988493;28;20393;-59
2022/01/22 03:45:27;;;;;;;13.25;2.53;;;;;;;5.78;83.79;103486.38;4996486;28;20120;-58
2022/01/22 03:47:52;;;;;;;14.27;3.33;;;;;;;5.85;83.66;103486.56;4998421;28;20551;-59
2022/01/22 03:50:19;;;;;;;14.80;3.92;;;;;;;5.87;83.62;103492.75;4992477;28;20037;-58
2022/01/22 03:52:45;;;;;;;11.30;3.58;;;;;;;5.90;83.41;103495.47;5006603;28;20141;-59
2022/01/22 03:55:13;;;;;;;12.73;2.75;;;;;;;5.92;83.33;103496.38;5006541;28;20106;-58
2022/01/22 03:57:38;;;;;;;16.67;3.20;;;;;;;5.93;83.32;103503.41;5003147;28;20032;-58
2022/01/22 04:00:06;;;;;;;21.92;3.30;;;;;;;5.96;83.07;103499.97;4991340;28;20117;-59
2022/01/22 04:05:15;;;;;;;11.82;2.47;;;;;;;5.93;83.13;103482.47;5006009;28;20064;-59
2022/01/22 04:10:20;;;;;;;9.45;1.52;;;;;;;6.00;82.26;103484.41;5006066;28;20499;-58
2022/01/22 04:12:52;;;;;;;6.82;2.00;;;;;;;6.04;81.96;103478.44;5018482;28;20396;-58
2022/01/22 04:15:21;;;;;;;10.77;1.90;;;;;;;6.07;81.65;103486.38;5005907;28;20049;-58
2022/01/22 04:26:07;;;;;;;9.48;1.80;;;;;;;6.17;80.87;103489.25;4997761;28;20121;-56
2022/01/22 04:28:32;;;;;;;8.35;1.50;;;;;;;6.15;80.78;103496.16;5007031;28;20511;-57
2022/01/22 04:30:57;;;;;;;14.07;1.70;;;;;;;6.17;80.42;103497.13;5002834;28;20117;-57
2022/01/22 04:33:23;;;;;;;14.82;1.77;;;;;;;6.19;80.58;103495.41;5003853;28;20033;-59
2022/01/22 04:35:48;;;;;;;4.45;1.25;;;;;;;6.23;80.37;103494.63;4990473;28;20444;-57
2022/01/22 04:38:14;;;;;;;5.30;1.38;;;;;;;6.21;80.35;103506.81;5026144;28;20068;-58
2022/01/22 04:40:39;;;;;;;14.20;1.95;;;;;;;6.16;80.50;103505.78;5004116;28;20170;-57
2022/01/22 04:43:05;;;;;;;7.53;1.65;;;;;;;6.13;80.43;103488.28;5014126;28;20038;-59
2022/01/22 04:45:48;;;;;;;12.10;2.10;;;;;;;6.17;80.61;103492.75;5004936;28;20116;-59
2022/01/22 04:48:39;;;;;;;8.73;1.50;;;;;;;6.19;80.45;103485.81;4987539;28;20058;-58
2022/01/22 04:56:32;;;;;;;10.68;1.10;;;;;;;6.18;80.42;103485.78;5007391;28;20091;-59
2022/01/22 04:58:57;;;;;;;14.05;1.60;;;;;;;6.13;80.69;103482.13;5005104;28;20037;-58
2022/01/22 05:01:23;;;;;;;11.77;1.88;;;;;;;6.11;80.66;103476.84;5006151;28;20034;-57
2022/01/22 05:03:48;;;;;;;7.50;1.58;;;;;;;6.18;80.57;103484.03;5006393;28;20430;-59
2022/01/22 05:06:13;;;;;;;7.10;1.55;;;;;;;6.15;80.68;103478.75;5007044;28;20026;-57
2022/01/22 05:08:39;;;;;;;8.48;1.60;;;;;;;6.15;80.74;103477.84;5002124;28;20120;-58
2022/01/22 05:11:04;;;;;;;8.77;1.80;;;;;;;6.23;80.56;103478.94;5005416;28;20034;-59
2022/01/22 05:13:29;;;;;;;8.90;1.58;;;;;;;6.21;80.61;103478.00;5004705;28;20026;-57
2022/01/22 05:15:55;;;;;;;10.05;1.95;;;;;;;6.19;80.73;103477.97;5004562;28;20037;-58
2022/01/22 05:18:20;;;;;;;9.45;1.33;;;;;;;6.23;80.95;103478.94;5011113;28;20518;-58
2022/01/22 05:20:54;;;;;;;11.70;1.60;;;;;;;6.19;81.34;103477.06;5010417;28;20079;-58
2022/01/22 05:23:22;;;;;;;13.88;1.70;;;;;;;6.21;81.42;103472.78;5006317;28;20029;-58
2022/01/22 05:25:56;;;;;;;18.98;2.45;;;;;;;6.22;81.41;103479.78;5010303;28;20044;-58
2022/01/22 05:30:58;;;;;;;17.52;2.17;;;;;;;6.21;81.73;103477.13;5010269;28;20037;-58
2022/01/22 05:38:54;;;;;;;13.55;2.25;;;;;;;6.23;81.44;103476.31;5010545;28;20041;-58
2022/01/22 05:41:19;;;;;;;13.63;1.90;;;;;;;6.19;81.42;103474.47;4993152;28;20025;-57
2022/01/22 05:43:45;;;;;;;7.55;1.92;;;;;;;6.24;81.01;103478.09;5009624;28;20033;-57
2022/01/22 05:46:10;;;;;;;7.95;1.65;;;;;;;6.25;80.93;103479.88;5009606;28;20037;-59
2022/01/22 05:48:35;;;;;;;11.60;1.70;;;;;;;6.17;80.95;103482.28;5009502;28;20062;-59
2022/01/22 05:51:03;;;;;;;8.15;1.80;;;;;;;6.23;80.79;103485.91;5009911;28;20124;-59
2022/01/22 05:53:43;;;;;;;8.38;1.70;;;;;;;6.24;80.62;103493.81;5010549;28;20030;-56
2022/01/22 05:59:37;;;;;;;11.48;1.55;;;;;;;6.30;79.87;103493.09;5009950;28;20492;-59
2022/01/22 06:01:30;;;;;;;10.20;1.88;;;;;;;6.34;79.63;103492.31;4992573;28;20244;-58
2022/01/22 06:03:56;;;;;;;10.95;1.77;;;;;;;6.35;79.58;103493.22;5009452;28;20050;-58
2022/01/22 06:06:21;;;;;;;9.25;2.20;;;;;;;6.36;79.35;103505.44;5007441;28;20080;-59
2022/01/22 06:08:53;;;;;;;10.10;1.65;;;;;;;6.39;79.44;103503.81;4996680;28;20111;-59
2022/01/22 06:11:25;;;;;;;14.18;3.83;;;;;;;6.32;79.69;103502.75;4994138;28;20036;-59
2022/01/22 06:13:50;;;;;;;13.98;2.70;;;;;;;6.28;79.94;103511.38;5007430;28;20072;-59
2022/01/22 06:16:18;;;;;;;4.88;1.77;;;;;;;6.41;79.56;103506.47;4975988;28;20026;-60
2022/01/22 06:18:44;;;;;;;11.18;1.70;;;;;;;6.42;79.63;103509.09;4993963;28;20026;-59
2022/01/22 06:21:10;;;;;;;11.93;2.20;;;;;;;6.34;79.81;103515.88;5005700;28;20093;-58
2022/01/22 06:23:36;;;;;;;8.15;1.80;;;;;;;6.31;80.08;103516.69;5008608;28;20120;-58
2022/01/22 06:26:03;;;;;;;9.95;1.73;;;;;;;6.40;79.89;103515.16;5009202;28;20029;-58
2022/01/22 06:28:28;;;;;;;11.50;2.83;;;;;;;6.30;80.23;103511.41;4998290;28;20468;-60
2022/01/22 06:30:54;;;;;;;8.77;1.77;;;;;;;6.44;79.97;103509.16;5027999;28;20109;-56
2022/01/22 06:33:19;;;;;;;10.07;2.40;;;;;;;6.45;79.82;103522.28;5028015;28;20399;-57
2022/01/22 06:35:45;;;;;;;11.10;2.22;;;;;;;6.40;80.14;103521.28;5021370;28;20041;-59
2022/01/22 06:38:10;;;;;;;10.50;1.83;;;;;;;6.42;80.00;103511.72;5009449;28;20068;-57
2022/01/22 06:43:01;;;;;;;15.55;2.70;;;;;;;6.37;80.36;103525.56;5008312;28;20129;-58
2022/01/22 06:45:26;;;;;;;10.02;2.03;;;;;;;6.40;80.29;103525.63;5008286;28;20369;-60
2022/01/22 06:47:52;;;;;;;9.27;2.47;;;;;;;6.36;80.36;103529.03;5008628;28;20029;-59
2022/01/22 06:50:19;;;;;;;8.07;2.00;;;;;;;6.35;80.49;103527.25;5007267;28;20018;-59
2022/01/22 06:52:45;;;;;;;27.52;6.13;;;;;;;6.28;80.70;103527.09;5020706;28;20515;-59
2022/01/22 06:55:12;;;;;;;11.75;2.55;;;;;;;6.28;80.72;103534.03;5023350;28;20037;-57
2022/01/22 06:57:37;;;;;;;12.27;2.05;;;;;;;6.27;80.78;103535.81;5008172;28;20029;-58
2022/01/22 07:00:04;;;;;;;9.65;2.25;;;;;;;6.26;80.94;103543.59;5003213;28;20026;-59
2022/01/22 07:02:29;;;;;;;6.72;1.70;;;;;;;6.26;80.95;103535.75;4998630;28;20393;-57
2022/01/22 07:04:55;;;;;;;12.95;2.08;;;;;;;6.24;80.97;103540.94;5000911;28;20042;-58
2022/01/22 07:07:20;;;;;;;9.88;2.55;;;;;;;6.25;81.04;103545.31;5008803;28;20041;-57
2022/01/22 07:09:45;;;;;;;7.60;2.10;;;;;;;6.29;80.89;103549.81;5006590;28;20046;-60
2022/01/22 07:12:12;;;;;;;14.30;2.80;;;;;;;6.30;80.97;103535.84;5007545;28;20057;-58
2022/01/22 07:14:37;;;;;;;9.65;2.25;;;;;;;6.24;81.22;103540.03;5028058;28;20025;-58
2022/01/22 07:17:03;;;;;;;16.52;2.90;;;;;;;6.38;80.68;103537.81;5010996;28;20344;-59
2022/01/22 07:19:29;;;;;;;9.23;2.33;;;;;;;6.40;80.56;103539.63;5008609;28;20022;-59
2022/01/22 07:22:04;;;;;;;19.15;2.45;;;;;;;6.37;80.72;103529.06;5007136;28;20018;-58
2022/01/22 07:24:37;;;;;;;17.60;2.97;;;;;;;6.56;80.30;103537.41;5002158;28;20056;-58
2022/01/22 07:27:03;;;;;;;4.97;2.25;;;;;;;6.63;80.02;103535.84;4988825;28;20116;-57
2022/01/22 07:29:29;;;;;;;11.02;2.80;;;;;;;6.66;80.08;103534.22;5007073;28;20083;-58
2022/01/22 07:31:54;;;;;;;13.82;2.17;;;;;;;6.69;79.97;103528.16;5006302;28;20026;-63
2022/01/22 07:34:19;;;;;;;11.38;2.58;;;;;;;6.66;79.98;103531.59;5007135;28;20076;-57
2022/01/22 07:36:45;;;;;;;17.83;3.45;;;;;;;6.68;79.86;103531.59;5002820;28;20481;-56
2022/01/22 07:39:10;;;;;;;10.15;2.60;;;;;;;6.68;80.04;103535.13;4996486;28;20034;-60
2022/01/22 07:41:37;;;;;;;13.07;2.55;;;;;;;6.71;80.04;103529.06;4996141;28;20057;-60
2022/01/22 07:44:03;;;;;;;13.85;2.53;;;;;;;6.71;80.11;103536.94;4996591;28;20029;-57
2022/01/22 07:46:28;;;;;;;13.77;3.00;;;;;;;6.63;80.29;103528.88;4996968;28;20026;-59
2022/01/22 07:48:54;;;;;;;12.27;2.88;;;;;;;6.68;80.43;103532.50;4997261;28;20084;-60
2022/01/22 07:51:19;;;;;;;11.48;2.60;;;;;;;6.75;80.23;103532.66;4996209;28;20092;-61
2022/01/22 07:53:45;;;;;;;8.00;2.63;;;;;;;6.75;80.20;103525.69;4995824;28;20018;-60
2022/01/22 07:56:12;;;;;;;12.15;3.15;;;;;;;6.74;80.31;103525.66;5001123;28;20054;-58
2022/01/22 07:58:37;;;;;;;20.35;3.88;;;;;;;6.74;80.43;103521.28;4995809;28;20118;-61
2022/01/22 08:01:03;;;;;;;10.93;3.28;;;;;;;6.78;80.38;103527.50;4997990;28;20037;-57
2022/01/22 08:03:29;;;;;;;12.85;3.45;;;;;;;6.68;80.67;103514.16;5004536;28;20072;-60
2022/01/22 08:05:54;;;;;;;10.43;3.38;;;;;;;6.67;80.75;103521.97;5004364;28;20499;-59
2022/01/22 08:08:20;;;;;;;11.70;3.33;;;;;;;6.73;80.79;103513.38;5005902;28;20018;-58
2022/01/22 08:10:45;;;;;;;18.90;2.72;;;;;;;6.71;80.72;103510.72;5006265;28;20030;-59
2022/01/22 08:13:11;;;;;;;12.02;2.58;;;;;;;6.73;80.72;103513.38;5006443;28;20037;-58
2022/01/22 08:15:36;;;;;;;14.98;2.97;;;;;;;6.76;80.52;103513.47;4998688;28;20037;-58
2022/01/22 08:18:03;;;;;;;8.60;2.78;;;;;;;6.75;80.60;103517.84;4974214;28;20030;-59
2022/01/22 08:20:28;;;;;;;12.98;3.42;;;;;;;6.83;80.61;103516.28;4983354;28;20258;-57
2022/01/22 08:22:54;;;;;;;12.23;4.05;;;;;;;6.86;79.96;103517.22;4987193;28;20104;-59
2022/01/22 08:25:19;;;;;;;14.85;3.05;;;;;;;6.87;79.89;103517.25;4986175;28;20536;-58
2022/01/22 08:30:35;;;;;;;13.90;3.00;;;;;;;7.00;78.98;103514.91;4967452;28;20246;-59
2022/01/22 08:35:52;;;;;;;;;;;;;;;6.95;78.04;103526.19;4968045;28;20042;-57
2022/01/22 08:38:18;;;;;;;7.95;3.08;;;;;;;6.98;78.03;103530.59;4987801;28;19921;-59
2022/01/22 08:40:43;;;;;;;10.90;2.88;;;;;;;7.02;77.80;103537.72;4986515;28;20025;-57
2022/01/22 08:43:09;;;;;;;9.15;2.47;;;;;;;7.05;77.75;103532.53;4987416;28;20165;-58
2022/01/22 08:45:36;;;;;;;8.57;2.97;;;;;;;7.05;77.71;103535.16;4986427;28;20373;-60
2022/01/22 08:48:01;;;;;;;6.95;2.28;;;;;;;7.02;77.25;103542.97;4983700;28;20097;-56
2022/01/22 08:50:27;;;;;;;12.48;2.90;;;;;;;7.05;77.42;103543.00;4986268;28;20550;-57
2022/01/22 08:52:52;;;;;;;7.63;2.50;;;;;;;7.08;76.89;103548.34;4985890;28;20026;-58
2022/01/22 08:55:17;;;;;;;11.48;2.67;;;;;;;7.16;76.86;103545.91;4986486;28;20107;-58
2022/01/22 08:57:45;;;;;;;9.27;2.88;;;;;;;7.17;76.69;103552.91;4986735;28;20088;-59
2022/01/22 09:00:11;;;;;;;6.18;2.38;;;;;;;7.19;76.35;103550.34;4985631;28;20434;-58
2022/01/22 09:02:36;;;;;;;7.75;2.30;;;;;;;7.20;76.40;103552.13;5000382;28;20036;-59
2022/01/22 09:05:02;;;;;;;12.35;3.22;;;;;;;7.20;76.43;103552.13;4983775;28;20033;-58
2022/01/22 09:07:27;;;;;;;11.18;2.10;;;;;;;7.22;76.83;103549.53;4986434;28;20864;-60
2022/01/22 09:09:53;;;;;;;7.70;2.33;;;;;;;7.18;76.82;103538.06;4982940;28;20092;-58
2022/01/22 09:12:19;;;;;;;7.13;2.95;;;;;;;7.19;76.80;103547.72;4986208;28;20057;-59
2022/01/22 09:14:47;;;;;;;8.10;2.17;;;;;;;7.20;76.69;103545.13;4985149;28;20116;-60
2022/01/22 09:17:13;;;;;;;6.32;2.40;;;;;;;7.21;76.75;103551.28;4974416;28;20484;-56
2022/01/22 09:19:39;;;;;;;3.50;1.88;;;;;;;7.24;76.49;103559.22;4983652;28;20037;-56
2022/01/22 09:22:06;;;;;;;8.80;2.47;;;;;;;7.24;76.40;103564.47;4985401;28;20042;-57
2022/01/22 09:24:31;;;;;;;10.45;2.45;;;;;;;7.25;76.09;103558.34;4984153;28;20030;-59
2022/01/22 09:26:58;;;;;;;6.53;2.30;;;;;;;7.24;76.12;103574.94;4981544;28;20056;-57
2022/01/22 09:29:24;;;;;;;7.10;2.50;;;;;;;7.29;76.28;103572.44;4983226;28;20034;-57
2022/01/22 09:31:50;;;;;;;11.52;2.28;;;;;;;7.28;76.04;103571.53;4985078;28;20025;-56
2022/01/22 09:34:15;;;;;;;8.48;2.17;;;;;;;7.35;75.72;103571.69;4981506;28;20029;-57
2022/01/22 09:36:41;;;;;;;11.75;2.58;;;;;;;7.40;75.62;103578.81;4986494;28;20053;-58
2022/01/22 09:39:06;;;;;;;13.95;3.78;;;;;;;7.44;75.70;103583.28;4986615;28;20033;-58
2022/01/22 09:41:32;;;;;;;10.88;2.92;;;;;;;7.39;75.94;103579.69;4985648;28;20018;-59
2022/01/22 09:43:57;;;;;;;10.55;2.70;;;;;;;7.42;75.93;103586.72;4983810;28;20033;-57
2022/01/22 09:46:25;;;;;;;8.93;2.70;;;;;;;7.45;76.15;103599.91;4990977;28;20029;-56
2022/01/22 09:48:50;;;;;;;8.73;2.47;;;;;;;7.53;76.12;103600.97;4984341;28;20722;-57
2022/01/22 09:51:16;;;;;;;13.73;2.67;;;;;;;7.53;76.20;103592.22;4983971;28;20017;-59
2022/01/22 09:53:43;;;;;;;8.90;2.72;;;;;;;7.57;76.26;103589.72;4998589;28;20036;-57
2022/01/22 09:56:09;;;;;;;11.77;2.97;;;;;;;7.62;76.59;103594.19;4988403;28;20025;-58
2022/01/22 09:58:35;;;;;;;12.13;2.90;;;;;;;7.65;76.11;103600.38;5005772;28;20538;-58
2022/01/22 10:01:38;;;;;;;10.35;3.35;;;;;;;7.64;76.11;103593.34;4996102;28;20054;-57
2022/01/22 10:04:05;;;;;;;11.27;3.17;;;;;;;7.64;75.88;103595.97;4977343;28;20046;-59
2022/01/22 10:06:32;;;;;;;13.45;3.35;;;;;;;7.67;75.02;103592.53;4979361;28;20552;-58
2022/01/22 10:09:12;;;;;;;7.90;2.88;;;;;;;7.74;74.58;103591.84;4981105;28;20042;-57
2022/01/22 10:11:37;;;;;;;7.85;2.45;;;;;;;7.74;74.63;103594.47;4982393;28;20084;-58
2022/01/22 10:14:03;;;;;;;15.10;3.50;;;;;;;7.80;74.43;103602.47;4978971;28;20033;-59
2022/01/22 10:16:34;;;;;;;17.13;4.55;;;;;;;7.84;74.76;103604.31;4961668;28;20022;-57
2022/01/22 10:19:09;;;;;;;10.32;3.45;;;;;;;7.88;74.50;103609.63;4981304;28;20110;-56
2022/01/22 10:21:35;;;;;;;8.25;2.97;;;;;;;7.93;74.78;103606.25;4979411;28;20091;-55
2022/01/22 10:24:33;;;;;;;9.35;3.10;;;;;;;8.00;74.41;103612.53;4977930;28;20029;-57
2022/01/22 10:27:26;;;;;;;12.48;4.00;;;;;;;8.00;74.58;103615.16;4979451;28;20072;-55
2022/01/22 10:30:08;;;;;;;12.52;3.88;;;;;;;7.99;74.59;103623.00;4981541;28;20033;-55
2022/01/22 10:32:47;;;;;;;10.25;3.53;;;;;;;8.00;74.72;103615.16;4989642;28;20022;-57
2022/01/22 10:35:23;;;;;;;11.75;3.83;;;;;;;7.93;74.85;103608.88;4977434;28;20026;-57
2022/01/22 10:37:54;;;;;;;8.93;3.65;;;;;;;7.95;75.00;103606.28;4978870;28;20436;-57
2022/01/22 10:40:27;;;;;;;10.50;3.67;;;;;;;7.86;75.12;103601.72;4970415;28;20031;-58
2022/01/22 10:43:21;;;;;;;9.68;3.30;;;;;;;7.99;74.76;103613.38;4974194;28;20029;-58
2022/01/22 10:46:33;;;;;;;19.27;4.15;;;;;;;7.94;74.95;103612.38;4969786;28;20561;-57
2022/01/22 10:49:09;;;;;;;13.48;3.40;;;;;;;7.94;75.21;103609.75;4976517;28;20041;-56
2022/01/22 10:51:45;;;;;;;9.52;3.25;;;;;;;7.95;75.18;103606.28;4987986;28;20092;-57
2022/01/22 10:54:11;;;;;;;11.57;3.72;;;;;;;7.98;75.18;103601.13;4987682;28;20061;-57
2022/01/22 10:56:39;;;;;;;15.90;3.80;;;;;;;7.95;75.43;103598.41;4988415;28;20057;-57
2022/01/22 10:59:07;;;;;;;21.45;4.43;;;;;;;7.92;75.38;103604.47;4988048;28;20030;-59
2022/01/22 11:01:56;;;;;;;14.13;4.80;;;;;;;7.91;75.56;103612.31;4985499;28;20556;-55
2022/01/22 11:04:26;;;;;;;8.60;3.60;;;;;;;7.92;75.37;103607.09;4962844;28;20400;-56
2022/01/22 11:07:03;;;;;;;16.15;4.78;;;;;;;7.81;75.78;103604.25;4975421;28;20442;-58
2022/01/22 11:09:30;;;;;;;14.30;4.38;;;;;;;7.88;75.52;103604.38;4980768;28;20014;-59
2022/01/22 11:11:56;;;;;;;18.80;4.90;;;;;;;7.94;75.25;103602.78;4970773;28;20045;-56
2022/01/22 11:14:21;;;;;;;18.30;5.10;;;;;;;7.91;74.64;103594.81;4977726;28;20530;-56
2022/01/22 11:16:49;;;;;;;12.23;4.43;;;;;;;7.96;73.33;103598.47;5000730;28;20128;-56
2022/01/22 11:19:19;;;;;;;14.70;4.93;;;;;;;8.00;73.80;103599.38;5007470;28;20064;-57
2022/01/22 11:21:47;;;;;;;10.60;3.80;;;;;;;8.01;73.64;103608.16;4989126;28;20021;-60
2022/01/22 11:24:14;;;;;;;10.32;4.70;;;;;;;8.06;73.78;103610.03;4987681;28;20042;-55
2022/01/22 11:26:43;;;;;;;9.80;4.30;;;;;;;7.97;74.11;103612.44;4987164;28;20766;-58
2022/01/22 11:29:09;;;;;;;;;;;;;;;8.01;74.29;103609.03;4987021;28;20034;-56
2022/01/22 11:31:34;;;;;;;4.40;4.00;;;;;;;8.01;74.30;103609.03;4970762;28;19997;-54
2022/01/22 11:34:00;;;;;;;10.80;5.45;;;;;;;8.01;74.45;103616.91;4970249;28;20021;-58
2022/01/22 11:36:52;;;;;;;14.68;5.03;;;;;;;7.99;74.47;103613.38;4969773;28;20050;-58
2022/01/22 11:39:20;;;;;;;14.73;4.55;;;;;;;7.94;74.64;103626.41;4968293;28;20093;-56
2022/01/22 11:41:58;;;;;;;15.48;5.40;;;;;;;7.90;74.87;103621.03;4955732;28;20080;-61
2022/01/22 11:44:49;;;;;;;13.00;4.95;;;;;;;7.92;74.80;103628.09;4967725;28;20480;-56
2022/01/22 11:47:17;;;;;;;14.77;5.40;;;;;;;7.79;75.00;103623.41;4969723;28;20030;-56
2022/01/22 11:50:10;;;;;;;16.80;5.20;;;;;;;7.76;74.86;103621.63;4986332;28;20122;-55
2022/01/22 11:52:38;;;;;;;7.45;4.30;;;;;;;7.76;74.31;103621.63;4969576;28;20089;-56
2022/01/22 11:55:11;;;;;;;12.97;5.47;;;;;;;7.75;73.99;103616.34;4986835;28;20033;-58
2022/01/22 11:57:37;;;;;;;8.45;4.85;;;;;;;7.74;73.25;103614.56;4983594;28;20380;-55
2022/01/22 12:00:21;;;;;;;9.65;5.43;;;;;;;7.76;73.34;103604.97;4987674;28;20595;-57
2022/01/22 12:03:06;;;;;;;15.18;5.28;;;;;;;7.75;73.37;103600.59;4985753;28;20468;-55
2022/01/22 12:05:32;;;;;;;7.72;4.45;;;;;;;7.68;73.66;103605.69;4979082;28;20042;-60
2022/01/22 12:07:59;;;;;;;10.10;5.28;;;;;;;7.77;74.09;103597.13;4984518;28;20038;-58
2022/01/22 12:10:40;;;;;;;15.95;5.65;;;;;;;7.76;74.18;103603.25;4969961;28;20021;-58
2022/01/22 12:16:08;;;;;;;15.40;6.03;;;;;;;7.64;75.00;103605.59;4987901;28;20145;-59
2022/01/22 12:18:39;;;;;;;14.75;5.78;;;;;;;7.68;74.85;103603.06;4985483;28;20312;-57
2022/01/22 12:23:32;;;;;;;19.17;6.00;;;;;;;7.74;74.96;103590.94;4988610;28;20329;-55
2022/01/22 12:26:00;;;;;;;13.88;6.72;;;;;;;7.82;74.70;103597.25;4987036;28;20121;-63
2022/01/22 12:28:42;;;;;;;13.18;6.55;;;;;;;7.75;74.74;103597.97;4990749;28;20096;-55
2022/01/22 12:31:15;;;;;;;16.45;6.45;;;;;;;7.74;74.69;103591.84;5006989;28;20365;-56
2022/01/22 12:33:40;;;;;;;12.77;6.63;;;;;;;7.74;75.17;103602.34;5000700;28;20480;-56
2022/01/22 12:36:21;;;;;;;12.43;7.13;;;;;;;7.69;75.00;103601.34;4987228;28;20033;-58
2022/01/22 12:38:59;;;;;;;20.25;7.85;;;;;;;7.73;74.63;103589.19;4990165;28;20018;-58
2022/01/22 12:44:11;;;;;;;16.75;8.13;;;;;;;7.69;74.86;103599.63;4991000;28;20298;-55
2022/01/22 12:46:37;;;;;;;18.38;7.22;;;;;;;7.68;74.28;103591.69;5007256;28;20045;-57
2022/01/22 12:49:04;;;;;;;18.88;7.45;;;;;;;7.68;74.38;103596.94;4987168;28;20018;-56
2022/01/22 12:51:30;;;;;;;22.25;8.85;;;;;;;7.63;74.74;103599.47;4987806;28;20025;-61
2022/01/22 12:53:56;;;;;;;22.95;10.88;;;;;;;7.57;75.24;103594.97;4985710;28;20018;-58
2022/01/22 12:59:07;;;;;;;14.35;9.93;;;;;;;7.54;75.76;103601.88;4987464;28;20217;-57
2022/01/22 13:01:34;;;;;;;19.70;10.43;;;;;;;7.51;75.65;103594.81;4979563;28;20128;-57
2022/01/22 13:04:03;;;;;;;13.15;8.68;;;;;;;7.57;75.49;103594.97;4966746;28;20490;-57
2022/01/22 13:06:44;;;;;;;17.33;10.25;;;;;;;7.51;75.71;103594.81;5004782;28;20041;-57
2022/01/22 13:09:11;;;;;;;19.88;10.57;;;;;;;7.53;75.49;103598.34;5006448;28;20030;-62
2022/01/22 13:11:45;;;;;;;23.20;11.20;;;;;;;7.53;75.82;103602.72;5005609;28;20084;-57
2022/01/22 13:14:11;;;;;;;17.42;10.55;;;;;;;7.53;75.35;103607.97;4989565;28;20029;-55